Bethlehem, PA

12:26 PM EST on November 26, 2014 (GMT -0500)
South Mountain | Change Station
CLOSE
Current Station
Personal Weather Station
Location: Bethlehem, PA
Elevation: 505 ft
Nearby Weather Stations
Active Advisory: Winter Storm Warning Active Notice: Public Information Statement

Elev 505 ft 40.60 °N, 75.38 °W | Updated 8 minutes ago

Snow
Snow
32.5 °F
Feels Like 32 °F
N
0.0
Wind Variable Wind from NW

Today
High -- | Low -- °F
--% Chance of Precip.
Yesterday
High -- | Low -- °F
Precip. -- in
7:00 AM 4:36 PM
Waxing Crescent, 21% visible
Pressure 30.03 in
Visibility 0.5 miles
Clouds Scattered Clouds 300 ft
Overcast 1000 ft
Windchill 32 °F
Dew Point 32 °F
Humidity 99%
Rainfall 0.09 in
Snow Depth Not available.
UV 1 out of 12
Pollen .10 out of 12
Air Quality Not available.
Flu Activity Not available.
SPECI KABE 261716Z 03007KT 1/2SM SN FG SCT003 OVC010 01/M01 A3003 RMK AO2 P0005 $

More Conditions Fewer Conditions

Pressure 30.03 in
Visibility 0.5 miles
Clouds Scattered Clouds 300 ft
Overcast 1000 ft
Windchill 32 °F
Dew Point 32 °F
Humidity 99%
Rainfall 0.09 in
Snow Depth Not available.
UV 1 out of 12
Pollen .10 out of 12
Air Quality Not available.
Flu Activity Not available.
SPECI KABE 261716Z 03007KT 1/2SM SN FG SCT003 OVC010 01/M01 A3003 RMK AO2 P0005 $

More Conditions Fewer Conditions

Nowcast | as of 11:46 am EST on November 26, 2014

Rain has begun to change over to snow, and light to moderate snow will continue into the afternoon hours. Light rain or sleet may continue to mix in at times, but the precipitation is now expected to remain all snow for most areas. Temperatures will remain in the lower to mid 30s. Northeast winds around 5 to 10 mph with gusts around 15 mph will continue as well. A few isolated lightning strikes and rumbles of thunder may also occur. Drivers are urged to use caution and be alert for changing weather conditions and roadway conditions.

×

10-Day Weather Forecast

Almanac

Astronomy

Nov. 26, 2014 Rise Set
Actual Time
Civil Twilight
Nautical Twilight
Astronomical Twilight
Moon
Length of Visible Light
Length of Day
Tomorrow will be .
, % of the Moon is Illuminated

Today's Extremes

State Highs State Lows

Community

WunderPhotos

Upload Photos

1,773,800 photos uploaded!

WunderBlogs® & News

Nearby

Air Quality

  Air Quality AQ Index Pollutant
Not available.

Snow Depth

Station Depth Elevation

Earthquake Activity

City Distance Mag. Time & Date
Minimum magnitude displayed is 2.5.

Coastal Water Temperatures

Place Temperature

Nearby Weather Stations